createdAt,value
2022-10-17T00:01:40.402Z,4.30
2022-10-17T00:04:11.070Z,4.30
2022-10-17T00:06:42.540Z,4.90
2022-10-17T00:09:12.839Z,4.10
2022-10-17T00:11:43.527Z,4.80
2022-10-17T00:14:14.090Z,3.40
2022-10-17T00:16:44.759Z,3.30
2022-10-17T00:19:15.377Z,6.20
2022-10-17T00:21:46.325Z,3.80
2022-10-17T00:24:17.242Z,3.40
2022-10-17T00:26:47.855Z,6.40
2022-10-17T00:29:18.496Z,2.80
2022-10-17T00:31:49.840Z,2.40
2022-10-17T00:34:20.210Z,3.60
2022-10-17T00:36:51.105Z,4.20
2022-10-17T00:39:21.797Z,4.60
2022-10-17T00:41:52.139Z,3.10
2022-10-17T00:44:57.676Z,2.70
2022-10-17T00:47:29.093Z,4.90
2022-10-17T00:50:03.254Z,3.20
2022-10-17T00:52:35.240Z,3.70
2022-10-17T00:55:11.928Z,4.10
2022-10-17T00:57:44.041Z,5.40
2022-10-17T01:00:17.472Z,3.40
2022-10-17T01:02:48.344Z,2.80
2022-10-17T01:05:20.321Z,2.60
2022-10-17T01:07:54.037Z,3.80
2022-10-17T01:10:26.274Z,3.80
2022-10-17T01:13:12.549Z,2.70
2022-10-17T01:15:53.789Z,6.60
2022-10-17T01:18:39.392Z,2.10
2022-10-17T01:21:27.897Z,2.70
2022-10-17T01:24:34.666Z,3.20
2022-10-17T01:27:37.072Z,2.50
2022-10-17T01:30:26.929Z,2.50
2022-10-17T01:33:00.124Z,3.20
2022-10-17T01:35:38.420Z,2.90
2022-10-17T01:38:12.710Z,2.60
2022-10-17T01:40:50.151Z,3.00
2022-10-17T01:43:25.602Z,3.50
2022-10-17T01:46:00.714Z,7.60
2022-10-17T01:48:36.382Z,3.10
2022-10-17T01:51:13.762Z,3.30
2022-10-17T01:53:50.992Z,3.30
2022-10-17T01:56:26.032Z,3.00
2022-10-17T01:59:01.854Z,3.20
2022-10-17T02:01:33.580Z,3.50
2022-10-17T02:04:06.832Z,2.40
2022-10-17T02:06:39.360Z,3.50
2022-10-17T02:09:22.107Z,3.10
2022-10-17T02:12:09.604Z,3.50
2022-10-17T02:14:55.607Z,3.00
2022-10-17T02:17:38.583Z,2.80
2022-10-17T02:20:17.761Z,3.90
2022-10-17T02:22:53.326Z,3.30
2022-10-17T02:25:37.050Z,2.60
2022-10-17T02:28:18.047Z,5.60
2022-10-17T02:30:53.015Z,5.90
2022-10-17T02:33:29.552Z,3.10
2022-10-17T02:36:03.129Z,2.70
2022-10-17T02:38:35.619Z,2.90
2022-10-17T02:41:07.275Z,3.50
2022-10-17T02:43:40.347Z,2.90
2022-10-17T02:46:11.285Z,2.60
2022-10-17T02:48:48.689Z,2.90
2022-10-17T02:51:28.966Z,2.60
2022-10-17T02:54:08.670Z,2.90
2022-10-17T02:56:42.724Z,3.40
2022-10-17T02:59:18.846Z,2.70
2022-10-17T03:01:51.580Z,4.20
2022-10-17T03:04:22.372Z,2.60
2022-10-17T03:06:53.151Z,3.60
2022-10-17T03:09:24.408Z,3.40
2022-10-17T03:11:54.793Z,3.80
2022-10-17T03:14:25.707Z,3.00
2022-10-17T03:16:56.347Z,3.50
2022-10-17T03:19:26.822Z,2.80
2022-10-17T03:21:57.919Z,10.40
2022-10-17T03:24:29.270Z,3.40
2022-10-17T03:27:00.237Z,3.70
2022-10-17T03:29:31.257Z,2.60
2022-10-17T03:32:02.004Z,4.70
2022-10-17T03:34:32.633Z,2.60
2022-10-17T03:37:03.293Z,2.40
2022-10-17T03:39:34.113Z,3.20
2022-10-17T03:42:05.452Z,3.20
2022-10-17T03:44:35.769Z,3.70
2022-10-17T03:47:09.207Z,2.80
2022-10-17T03:49:42.606Z,3.30
2022-10-17T03:52:15.088Z,3.00
2022-10-17T03:54:45.583Z,2.90
2022-10-17T03:57:16.310Z,3.50
2022-10-17T03:59:47.603Z,3.20
2022-10-17T04:02:18.539Z,3.30
2022-10-17T04:04:48.932Z,3.40
2022-10-17T04:07:19.983Z,2.40
2022-10-17T04:09:50.361Z,3.40
2022-10-17T04:12:20.733Z,3.90
2022-10-17T04:14:51.095Z,3.00
2022-10-17T04:17:21.536Z,2.80
2022-10-17T04:19:53.292Z,3.30
2022-10-17T04:22:23.670Z,3.50
2022-10-17T04:24:53.997Z,9.70
2022-10-17T04:27:24.587Z,15.50
2022-10-17T04:29:55.137Z,16.10
2022-10-17T04:32:25.970Z,9.20
2022-10-17T04:34:56.492Z,7.60
2022-10-17T04:37:26.959Z,8.00
2022-10-17T04:39:57.684Z,6.00
2022-10-17T04:42:29.991Z,3.90
2022-10-17T04:45:01.155Z,4.40
2022-10-17T04:47:31.762Z,3.30
2022-10-17T04:50:02.382Z,2.90
2022-10-17T04:52:33.381Z,2.90
2022-10-17T04:55:04.387Z,3.20
2022-10-17T04:57:37.483Z,6.20
2022-10-17T05:02:45.578Z,4.60
2022-10-17T05:05:16.324Z,4.50
2022-10-17T05:07:47.282Z,3.10
2022-10-17T05:10:18.230Z,2.60
2022-10-17T05:12:49.319Z,2.50
2022-10-17T05:15:20.025Z,3.70
2022-10-17T05:17:50.655Z,3.30
2022-10-17T05:20:21.464Z,3.10
2022-10-17T05:22:52.428Z,2.50
2022-10-17T05:25:22.935Z,4.10
2022-10-17T05:27:53.292Z,3.80
2022-10-17T05:30:23.948Z,3.80
2022-10-17T05:32:56.480Z,4.00
2022-10-17T05:35:27.227Z,4.30
2022-10-17T05:37:57.633Z,4.40
2022-10-17T05:40:28.322Z,5.00
2022-10-17T05:42:59.129Z,3.90
2022-10-17T05:45:30.030Z,3.70
2022-10-17T05:48:00.949Z,4.40
2022-10-17T05:50:31.669Z,4.00
2022-10-17T05:53:02.953Z,3.10
2022-10-17T05:55:33.973Z,3.50
2022-10-17T05:58:04.677Z,6.00
2022-10-17T06:00:36.022Z,3.80
2022-10-17T06:03:06.927Z,5.80
2022-10-17T06:05:39.054Z,8.50
2022-10-17T06:08:09.742Z,6.70
2022-10-17T06:10:40.926Z,4.90
2022-10-17T06:13:11.605Z,5.40
2022-10-17T06:15:42.896Z,4.60
2022-10-17T06:18:13.352Z,4.00
2022-10-17T06:20:46.120Z,4.10
2022-10-17T06:23:17.001Z,4.80
2022-10-17T06:25:47.318Z,5.80
2022-10-17T06:28:17.773Z,3.90
2022-10-17T06:30:48.424Z,3.50
2022-10-17T06:33:20.853Z,6.40
2022-10-17T06:35:55.364Z,4.30
2022-10-17T06:38:26.119Z,6.40
2022-10-17T06:40:57.854Z,4.90
2022-10-17T06:43:29.878Z,6.10
2022-10-17T06:46:00.277Z,7.30
2022-10-17T06:48:30.666Z,3.50
2022-10-17T06:51:04.496Z,3.80
2022-10-17T06:53:36.295Z,5.20
2022-10-17T06:56:08.209Z,4.40
2022-10-17T06:58:40.583Z,5.70
2022-10-17T07:01:12.979Z,3.80
2022-10-17T07:03:43.697Z,7.30
2022-10-17T07:06:14.030Z,6.70
2022-10-17T07:08:46.983Z,7.70
2022-10-17T07:11:19.561Z,4.10
2022-10-17T07:13:50.636Z,7.00
2022-10-17T07:16:21.336Z,4.00
2022-10-17T07:18:54.342Z,3.60
2022-10-17T07:21:25.248Z,5.60
2022-10-17T07:23:55.646Z,6.60
2022-10-17T07:26:26.305Z,4.70
2022-10-17T07:28:57.605Z,5.30
2022-10-17T07:31:28.152Z,5.00
2022-10-17T07:34:00.177Z,5.60
2022-10-17T07:36:30.561Z,8.10
2022-10-17T07:39:00.901Z,7.20
2022-10-17T07:41:31.251Z,5.30
2022-10-17T07:44:01.655Z,4.40
2022-10-17T07:46:32.198Z,5.10
2022-10-17T07:49:02.629Z,4.60
2022-10-17T07:51:33.610Z,5.00
2022-10-17T07:54:05.735Z,3.60
2022-10-17T07:56:36.221Z,6.20
2022-10-17T07:59:09.197Z,3.20
2022-10-17T08:01:40.007Z,3.60
2022-10-17T08:04:10.731Z,4.30
2022-10-17T08:06:41.185Z,5.10
2022-10-17T08:09:11.618Z,6.40
2022-10-17T08:11:43.946Z,5.50
2022-10-17T08:14:16.843Z,6.30
2022-10-17T08:16:47.183Z,6.00
2022-10-17T08:19:17.900Z,3.70
2022-10-17T08:21:50.046Z,5.00
2022-10-17T08:24:20.836Z,4.40
2022-10-17T08:26:53.366Z,5.70
2022-10-17T08:29:23.993Z,3.20
2022-10-17T08:31:58.673Z,3.80
2022-10-17T08:34:31.933Z,3.70
2022-10-17T08:37:02.351Z,3.60
2022-10-17T08:39:32.863Z,3.70
2022-10-17T08:42:19.281Z,8.00
2022-10-17T08:44:58.377Z,3.40
2022-10-17T08:47:37.217Z,4.10
2022-10-17T08:50:13.593Z,4.80
2022-10-17T08:52:47.988Z,3.90
2022-10-17T08:55:29.621Z,4.80
2022-10-17T08:58:00.482Z,4.00
2022-10-17T09:00:33.338Z,3.20
2022-10-17T09:03:17.776Z,3.60
2022-10-17T09:05:54.933Z,3.30
2022-10-17T09:08:37.287Z,5.40
2022-10-17T09:11:18.258Z,4.60
2022-10-17T09:14:01.984Z,3.60
2022-10-17T09:16:46.221Z,3.60
2022-10-17T09:19:22.438Z,2.90
2022-10-17T09:21:59.421Z,4.30
2022-10-17T09:24:41.662Z,5.40
2022-10-17T09:27:20.929Z,11.60
2022-10-17T09:29:56.482Z,5.60
2022-10-17T09:32:28.272Z,2.60
2022-10-17T09:34:58.935Z,2.70
2022-10-17T09:37:33.808Z,3.10
2022-10-17T09:40:07.530Z,3.30
2022-10-17T09:42:38.501Z,3.30
2022-10-17T09:45:24.695Z,2.40
2022-10-17T09:48:03.127Z,3.40
2022-10-17T09:50:35.326Z,3.70
2022-10-17T09:53:14.852Z,4.00
2022-10-17T09:55:48.237Z,3.50
2022-10-17T09:58:18.593Z,4.20
2022-10-17T10:00:49.900Z,2.80
2022-10-17T10:03:22.782Z,3.60
2022-10-17T10:06:14.945Z,6.60
2022-10-17T10:08:55.189Z,2.80
2022-10-17T10:11:45.510Z,3.80
2022-10-17T10:14:24.111Z,3.60
2022-10-17T10:16:55.852Z,2.70
2022-10-17T10:19:32.188Z,3.20
2022-10-17T10:22:05.021Z,4.20
2022-10-17T10:24:35.884Z,2.90
2022-10-17T10:27:12.039Z,5.80
2022-10-17T10:29:44.995Z,4.70
2022-10-17T10:32:23.337Z,3.30
2022-10-17T10:34:56.829Z,6.40
2022-10-17T10:37:32.803Z,2.90
2022-10-17T10:40:05.637Z,3.30
2022-10-17T10:42:39.627Z,3.40
2022-10-17T10:45:35.873Z,2.40
2022-10-17T10:48:22.490Z,3.80
2022-10-17T10:50:57.232Z,2.80
2022-10-17T10:53:40.677Z,2.60
2022-10-17T10:56:18.153Z,2.70
2022-10-17T11:01:31.857Z,4.90
2022-10-17T11:04:18.494Z,3.00
2022-10-17T11:06:52.472Z,3.60
2022-10-17T11:09:43.845Z,5.30
2022-10-17T11:12:21.150Z,3.50
2022-10-17T11:14:57.210Z,3.40
2022-10-17T11:17:36.081Z,2.20
2022-10-17T11:20:23.036Z,2.40
2022-10-17T11:22:59.821Z,2.80
2022-10-17T11:25:37.646Z,3.50
2022-10-17T11:28:15.856Z,5.50
2022-10-17T11:30:51.597Z,3.50
2022-10-17T11:33:29.969Z,2.40
2022-10-17T11:36:06.799Z,2.90
2022-10-17T11:38:46.894Z,6.00
2022-10-17T11:41:23.369Z,2.40
2022-10-17T11:43:58.309Z,2.50
2022-10-17T11:46:29.703Z,3.60
2022-10-17T11:49:07.561Z,7.20
2022-10-17T11:52:03.155Z,2.50
2022-10-17T11:54:39.187Z,3.60
2022-10-17T11:57:36.065Z,2.50
2022-10-17T12:00:22.427Z,3.20
2022-10-17T12:03:05.583Z,3.10
2022-10-17T12:05:42.789Z,2.90
2022-10-17T12:08:19.493Z,3.00
2022-10-17T12:10:59.351Z,3.50
2022-10-17T12:13:53.252Z,3.30
2022-10-17T12:16:52.350Z,2.90
2022-10-17T12:19:28.666Z,2.50
2022-10-17T12:22:01.761Z,3.30
2022-10-17T12:24:38.149Z,2.40
2022-10-17T12:27:45.929Z,2.80
2022-10-17T12:30:22.335Z,2.70
2022-10-17T12:33:07.514Z,5.20
2022-10-17T12:35:40.274Z,3.50
2022-10-17T12:38:25.099Z,2.40
2022-10-17T12:41:11.793Z,6.70
2022-10-17T12:46:51.017Z,3.10
2022-10-17T12:49:41.866Z,4.90
2022-10-17T12:52:49.369Z,3.70
2022-10-17T12:55:21.243Z,5.60
2022-10-17T12:57:56.718Z,3.10
2022-10-17T13:00:34.777Z,2.70
2022-10-17T13:03:18.393Z,2.80
2022-10-17T13:05:52.409Z,3.20
2022-10-17T13:08:26.674Z,2.90
2022-10-17T13:10:58.241Z,4.70
2022-10-17T13:13:48.774Z,2.50
2022-10-17T13:16:32.833Z,2.70
2022-10-17T13:19:05.171Z,3.10
2022-10-17T13:21:35.536Z,2.90
2022-10-17T13:24:22.829Z,3.20
2022-10-17T13:26:53.230Z,6.10
2022-10-17T13:29:25.678Z,6.40
2022-10-17T13:32:01.198Z,2.70
2022-10-17T13:34:32.480Z,2.50
2022-10-17T13:37:05.548Z,3.60
2022-10-17T13:39:58.139Z,2.30
2022-10-17T13:42:33.187Z,4.40
2022-10-17T13:45:04.836Z,2.30
2022-10-17T13:47:40.741Z,4.40
2022-10-17T13:50:43.121Z,3.20
2022-10-17T13:53:20.807Z,3.00
2022-10-17T13:56:15.689Z,3.30
2022-10-17T13:58:48.985Z,2.20
2022-10-17T14:01:20.647Z,2.40
2022-10-17T14:04:02.137Z,4.80
2022-10-17T14:06:47.666Z,3.10
2022-10-17T14:09:25.443Z,3.00
2022-10-17T14:12:05.066Z,3.00
2022-10-17T14:14:58.112Z,6.00
2022-10-17T14:17:29.244Z,6.20
2022-10-17T14:23:20.978Z,4.30
2022-10-17T14:25:44.302Z,3.40
2022-10-17T14:28:18.475Z,5.60
2022-10-17T14:30:56.868Z,2.90
2022-10-17T14:33:30.315Z,2.20
2022-10-17T14:36:03.604Z,2.30
2022-10-17T14:38:35.967Z,6.20
2022-10-17T14:44:08.061Z,5.50
2022-10-17T14:46:49.582Z,3.60
2022-10-17T14:49:26.231Z,2.70
2022-10-17T14:52:29.664Z,7.40
2022-10-17T14:55:02.217Z,2.40
2022-10-17T14:57:44.735Z,2.70
2022-10-17T15:00:18.456Z,4.30
2022-10-17T15:02:50.166Z,4.80
2022-10-17T15:05:23.032Z,5.50
2022-10-17T15:07:54.696Z,5.10
2022-10-17T15:10:33.702Z,7.50
2022-10-17T15:13:26.594Z,2.70
2022-10-17T15:15:55.088Z,3.80
2022-10-17T15:18:25.540Z,4.10
2022-10-17T15:21:04.902Z,4.30
2022-10-17T15:23:37.426Z,3.50
2022-10-17T15:26:14.101Z,4.70
2022-10-17T15:28:45.542Z,3.60
2022-10-17T15:31:18.719Z,4.00
2022-10-17T15:33:50.377Z,3.30
2022-10-17T15:36:27.546Z,6.00
2022-10-17T15:39:00.032Z,10.40
2022-10-17T15:41:32.238Z,3.70
2022-10-17T15:44:02.907Z,4.10
2022-10-17T15:46:35.960Z,6.80
2022-10-17T15:49:08.547Z,4.60
2022-10-17T15:51:38.954Z,3.30
2022-10-17T15:54:09.757Z,2.80
2022-10-17T15:56:42.346Z,7.40
2022-10-17T15:59:17.914Z,4.40
2022-10-17T16:01:49.087Z,7.90
2022-10-17T16:04:19.795Z,2.50
2022-10-17T16:06:50.068Z,4.30
2022-10-17T16:09:20.356Z,3.00
2022-10-17T16:11:50.695Z,4.10
2022-10-17T16:14:21.365Z,3.80
2022-10-17T16:16:52.077Z,3.80
2022-10-17T16:19:23.697Z,2.80
2022-10-17T16:21:56.272Z,2.80
2022-10-17T16:24:28.321Z,3.70
2022-10-17T16:26:59.588Z,5.70
2022-10-17T16:29:29.954Z,5.30
2022-10-17T16:32:00.515Z,3.90
2022-10-17T16:34:32.475Z,4.70
2022-10-17T16:37:03.738Z,4.00
2022-10-17T16:39:34.815Z,5.00
2022-10-17T16:42:05.614Z,4.60
2022-10-17T16:44:36.001Z,5.20
2022-10-17T16:47:06.331Z,4.80
2022-10-17T16:49:40.319Z,7.30
2022-10-17T16:52:14.094Z,8.20
2022-10-17T16:54:45.001Z,2.90
2022-10-17T16:57:15.836Z,3.50
2022-10-17T16:59:48.156Z,4.60
2022-10-17T17:02:21.283Z,3.10
2022-10-17T17:04:52.368Z,6.60
2022-10-17T17:07:24.392Z,3.30
2022-10-17T17:09:55.697Z,5.60
2022-10-17T17:12:26.531Z,4.00
2022-10-17T17:14:57.269Z,5.80
2022-10-17T17:17:36.817Z,4.80
2022-10-17T17:20:18.466Z,3.40
2022-10-17T17:22:50.836Z,3.10
2022-10-17T17:25:22.315Z,4.90
2022-10-17T17:27:52.752Z,3.20
2022-10-17T17:30:23.353Z,5.50
2022-10-17T17:32:54.317Z,3.70
2022-10-17T17:35:25.361Z,4.60
2022-10-17T17:37:55.905Z,3.30
2022-10-17T17:40:26.335Z,5.00
2022-10-17T17:42:57.473Z,3.10
2022-10-17T17:45:28.602Z,3.60
2022-10-17T17:47:59.046Z,3.00
2022-10-17T17:50:29.973Z,7.20
2022-10-17T17:53:01.523Z,4.20
2022-10-17T17:55:32.461Z,8.40
2022-10-17T17:58:04.511Z,6.60
2022-10-17T18:00:35.752Z,3.90
2022-10-17T18:03:07.536Z,4.50
2022-10-17T18:05:41.440Z,3.20
2022-10-17T18:08:12.715Z,3.60
2022-10-17T18:10:47.924Z,4.00
2022-10-17T18:13:19.134Z,4.30
2022-10-17T18:15:51.963Z,4.40
2022-10-17T18:18:23.829Z,3.50
2022-10-17T18:20:55.370Z,6.30
2022-10-17T18:23:26.829Z,4.50
2022-10-17T18:26:01.129Z,4.00
2022-10-17T18:28:34.177Z,4.70
2022-10-17T18:31:08.937Z,4.10
2022-10-17T18:33:39.922Z,5.30
2022-10-17T18:36:12.808Z,7.30
2022-10-17T18:38:44.515Z,4.30
2022-10-17T18:41:16.258Z,3.20
2022-10-17T18:43:48.260Z,5.60
2022-10-17T18:46:20.201Z,4.40
2022-10-17T18:48:51.747Z,5.80
2022-10-17T18:51:24.101Z,5.70
2022-10-17T18:53:58.569Z,5.90
2022-10-17T18:56:30.123Z,4.40
2022-10-17T18:59:01.376Z,7.10
2022-10-17T19:01:32.175Z,5.20
2022-10-17T19:04:03.027Z,5.40
2022-10-17T19:06:34.188Z,4.50
2022-10-17T19:09:07.272Z,5.60
2022-10-17T19:11:39.004Z,9.00
2022-10-17T19:14:13.313Z,4.40
2022-10-17T19:16:45.866Z,6.90
2022-10-17T19:19:19.222Z,3.90
2022-10-17T19:21:49.945Z,4.90
2022-10-17T19:24:21.977Z,5.80
2022-10-17T19:26:54.969Z,3.80
2022-10-17T19:29:28.147Z,5.30
2022-10-17T19:31:58.469Z,4.30
2022-10-17T19:34:29.857Z,6.40
2022-10-17T19:37:00.755Z,3.40
2022-10-17T19:39:32.941Z,6.20
2022-10-17T19:42:06.740Z,5.20
2022-10-17T19:44:38.108Z,7.00
2022-10-17T19:47:09.125Z,6.30
2022-10-17T19:49:39.710Z,6.00
2022-10-17T19:52:10.356Z,6.10
2022-10-17T19:54:41.523Z,7.00
2022-10-17T19:57:12.243Z,6.20
2022-10-17T19:59:43.582Z,6.90
2022-10-17T20:02:15.276Z,4.90
2022-10-17T20:04:54.535Z,6.90
2022-10-17T20:07:36.652Z,5.30
2022-10-17T20:10:08.735Z,8.70
2022-10-17T20:12:39.421Z,5.20
2022-10-17T20:15:10.988Z,8.50
2022-10-17T20:17:41.803Z,6.80
2022-10-17T20:20:13.335Z,6.20
2022-10-17T20:22:44.084Z,7.20
2022-10-17T20:25:15.366Z,5.30
2022-10-17T20:27:46.578Z,6.70
2022-10-17T20:30:17.584Z,4.60
2022-10-17T20:32:48.254Z,5.00
2022-10-17T20:35:19.059Z,9.50
2022-10-17T20:37:49.926Z,10.40
2022-10-17T20:40:34.763Z,6.30
2022-10-17T20:43:07.495Z,6.90
2022-10-17T20:45:51.471Z,8.00
2022-10-17T20:48:23.098Z,8.10
2022-10-17T20:50:54.261Z,9.60
2022-10-17T20:53:36.717Z,5.70
2022-10-17T20:56:11.537Z,6.70
2022-10-17T20:58:42.153Z,6.20
2022-10-17T21:01:13.906Z,11.10
2022-10-17T21:03:46.506Z,7.90
2022-10-17T21:06:18.898Z,6.90
2022-10-17T21:08:50.876Z,8.30
2022-10-17T21:11:23.202Z,7.40
2022-10-17T21:13:59.299Z,9.70
2022-10-17T21:16:31.348Z,10.00
2022-10-17T21:19:02.108Z,9.30
2022-10-17T21:21:34.444Z,7.90
2022-10-17T21:24:07.792Z,7.90
2022-10-17T21:26:39.413Z,8.70
2022-10-17T21:29:11.194Z,9.10
2022-10-17T21:31:43.456Z,9.20
2022-10-17T21:34:17.585Z,9.60
2022-10-17T21:36:48.714Z,5.60
2022-10-17T21:39:20.165Z,6.40
2022-10-17T21:41:50.930Z,9.20
2022-10-17T21:44:23.199Z,7.20
2022-10-17T21:46:55.440Z,6.70
2022-10-17T21:49:27.772Z,8.90
2022-10-17T21:51:58.329Z,10.10
2022-10-17T21:54:28.963Z,6.30
2022-10-17T21:56:59.594Z,10.00
2022-10-17T21:59:31.890Z,7.20
2022-10-17T22:02:03.105Z,7.40
2022-10-17T22:04:33.982Z,6.60
2022-10-17T22:07:04.655Z,8.80
2022-10-17T22:09:35.019Z,7.70
2022-10-17T22:12:05.637Z,6.30
2022-10-17T22:14:36.601Z,7.60
2022-10-17T22:17:07.298Z,6.30
2022-10-17T22:19:38.459Z,6.60
2022-10-17T22:22:09.394Z,6.00
2022-10-17T22:24:40.640Z,8.20
2022-10-17T22:27:11.256Z,7.50
2022-10-17T22:29:42.201Z,7.60
2022-10-17T22:32:12.826Z,9.50
2022-10-17T22:34:43.438Z,9.10
2022-10-17T22:37:13.790Z,7.90
2022-10-17T22:39:44.763Z,8.20
2022-10-17T22:42:15.817Z,7.50
2022-10-17T22:44:46.647Z,8.20
2022-10-17T22:47:17.309Z,9.70
2022-10-17T22:49:47.999Z,9.70
2022-10-17T22:52:18.997Z,9.50
2022-10-17T22:54:50.171Z,8.70
2022-10-17T22:57:20.496Z,7.30
2022-10-17T22:59:51.109Z,8.50
2022-10-17T23:02:21.469Z,9.10
2022-10-17T23:04:52.149Z,10.70
2022-10-17T23:07:22.807Z,9.70
2022-10-17T23:09:53.606Z,10.30
2022-10-17T23:12:24.590Z,8.40
2022-10-17T23:14:55.514Z,11.20
2022-10-17T23:17:26.560Z,10.70
2022-10-17T23:19:57.794Z,9.70
2022-10-17T23:22:28.591Z,10.70
2022-10-17T23:24:59.352Z,7.00
2022-10-17T23:30:05.971Z,9.90
2022-10-17T23:32:36.313Z,9.60
2022-10-17T23:35:07.757Z,9.20
2022-10-17T23:37:39.282Z,8.70
2022-10-17T23:40:11.921Z,8.60
2022-10-17T23:42:42.305Z,11.20
2022-10-17T23:45:13.983Z,7.60
2022-10-17T23:47:44.378Z,8.90
2022-10-17T23:50:15.132Z,10.20
2022-10-17T23:52:45.490Z,10.00
2022-10-17T23:55:16.063Z,7.40
2022-10-17T23:57:46.376Z,14.30
